Time;durP1;ratioP1;P1;durP2;ratioP2;P2;SDS_P1;SDS_P2;PMS_P1;PMS_P2;Temp;Humidity;BMP_temperature;BMP_pressure;BME280_temperature;BME280_humidity;BME280_pressure;Samples;Min_cycle;Max_cycle;Signal;HPM_P1;HPM_P2
2023/02/13 00:01:50;;;;;;;8.87;7.07;;;;;;;;;;5028591;28;20340;-54
2023/02/13 00:04:16;;;;;;;8.90;6.90;;;;;;;;;;5022798;28;20724;-54
2023/02/13 00:06:43;;;;;;;8.27;6.77;;;;;;;;;;5017388;28;20633;-56
2023/02/13 00:09:10;;;;;;;7.20;6.10;;;;;;;;;;5033321;28;20555;-54
2023/02/13 00:11:36;;;;;;;8.00;6.70;;;;;;;;;;5032886;28;20173;-54
2023/02/13 00:14:02;;;;;;;7.77;6.27;;;;;;;;;;5031691;28;20170;-54
2023/02/13 00:16:29;;;;;;;8.13;6.27;;;;;;;;;;5033371;28;20181;-55
2023/02/13 00:18:55;;;;;;;7.93;6.43;;;;;;;;;;5033738;28;20158;-54
2023/02/13 00:21:21;;;;;;;8.50;7.27;;;;;;;;;;5032216;28;20182;-55
2023/02/13 00:23:47;;;;;;;7.07;6.20;;;;;;;;;;5026420;28;20178;-54
2023/02/13 00:26:14;;;;;;;8.87;6.13;;;;;;;;;;5012680;28;20178;-54
2023/02/13 00:28:41;;;;;;;7.77;6.93;;;;;;;;;;5017469;28;20240;-54
2023/02/13 00:31:11;;;;;;;8.20;6.70;;;;;;;;;;5018789;28;20178;-54
2023/02/13 00:33:38;;;;;;;8.27;6.10;;;;;;;;;;5025884;28;20585;-54
2023/02/13 00:36:09;;;;;;;7.67;6.13;;;;;;;;;;5022194;28;20548;-56
2023/02/13 00:38:36;;;;;;;7.47;6.60;;;;;;;;;;5025748;28;20651;-56
2023/02/13 00:41:02;;;;;;;6.47;5.60;;;;;;;;;;5020065;28;20182;-55
2023/02/13 00:43:29;;;;;;;8.37;6.47;;;;;;;;;;5024820;28;20646;-54
2023/02/13 00:45:55;;;;;;;6.97;5.93;;;;;;;;;;5025981;28;20796;-53
2023/02/13 00:48:21;;;;;;;7.37;6.00;;;;;;;;;;5027391;28;20232;-55
2023/02/13 00:50:47;;;;;;;6.63;5.87;;;;;;;;;;5022360;28;20213;-57
2023/02/13 00:53:13;;;;;;;6.27;5.67;;;;;;;;;;5023813;28;20583;-54
2023/02/13 00:55:39;;;;;;;6.53;5.33;;;;;;;;;;5024151;28;20274;-54
2023/02/13 00:58:05;;;;;;;6.47;5.40;;;;;;;;;;5023565;28;20643;-54
2023/02/13 01:00:31;;;;;;;9.00;5.73;;;;;;;;;;5025693;28;20657;-55
2023/02/13 01:02:57;;;;;;;6.90;6.20;;;;;;;;;;5029863;28;20618;-54
2023/02/13 01:05:24;;;;;;;5.80;4.87;;;;;;;;;;5020021;28;20637;-54
2023/02/13 01:07:51;;;;;;;6.93;5.67;;;;;;;;;;5021330;28;20178;-53
2023/02/13 01:10:17;;;;;;;6.53;5.67;;;;;;;;;;5029277;28;20162;-54
2023/02/13 01:12:43;;;;;;;6.97;5.67;;;;;;;;;;5028489;28;20260;-54
2023/02/13 01:15:09;;;;;;;7.50;5.80;;;;;;;;;;5014310;28;20170;-54
2023/02/13 01:17:38;;;;;;;6.57;5.83;;;;;;;;;;5028233;28;20657;-54
2023/02/13 01:20:04;;;;;;;6.63;6.03;;;;;;;;;;5021269;28;20228;-54
2023/02/13 01:22:30;;;;;;;6.20;5.10;;;;;;;;;;5014847;28;20178;-53
2023/02/13 01:24:56;;;;;;;6.37;5.17;;;;;;;;;;5029761;28;20700;-53
2023/02/13 01:27:22;;;;;;;6.47;5.70;;;;;;;;;;5012559;28;20192;-54
2023/02/13 01:29:49;;;;;;;7.43;6.03;;;;;;;;;;5022308;28;20645;-54
2023/02/13 01:32:15;;;;;;;7.67;6.47;;;;;;;;;;5019372;28;20190;-54
2023/02/13 01:34:41;;;;;;;7.17;6.13;;;;;;;;;;5020557;28;20169;-54
2023/02/13 01:37:07;;;;;;;6.60;5.70;;;;;;;;;;5020680;28;20533;-55
2023/02/13 01:39:33;;;;;;;7.20;5.83;;;;;;;;;;5020211;28;20320;-54
2023/02/13 01:41:59;;;;;;;7.07;5.90;;;;;;;;;;5021434;28;20181;-55
2023/02/13 01:44:47;;;;;;;8.43;6.67;;;;;;;;;;5019050;28;20185;-53
2023/02/13 01:47:15;;;;;;;7.27;6.17;;;;;;;;;;5021482;28;20177;-53
2023/02/13 01:49:42;;;;;;;6.87;5.80;;;;;;;;;;5027580;28;20221;-54
2023/02/13 01:52:09;;;;;;;6.67;5.67;;;;;;;;;;5035572;28;20206;-52
2023/02/13 01:54:35;;;;;;;6.53;5.60;;;;;;;;;;5015499;28;20272;-54
2023/02/13 01:57:21;;;;;;;6.57;5.63;;;;;;;;;;5022524;28;20272;-54
2023/02/13 01:59:49;;;;;;;7.80;6.30;;;;;;;;;;5017973;28;20174;-54
2023/02/13 02:02:15;;;;;;;6.97;5.80;;;;;;;;;;5019197;28;20185;-54
2023/02/13 02:04:42;;;;;;;8.80;6.87;;;;;;;;;;5020237;28;20226;-55
2023/02/13 02:07:13;;;;;;;7.83;6.50;;;;;;;;;;5021413;28;20182;-53
2023/02/13 02:09:40;;;;;;;8.37;6.57;;;;;;;;;;5016284;28;20555;-54
2023/02/13 02:12:32;;;;;;;7.97;6.67;;;;;;;;;;5019084;28;20208;-54
2023/02/13 02:14:59;;;;;;;7.43;6.07;;;;;;;;;;4991217;28;20191;-54
2023/02/13 02:17:26;;;;;;;8.63;6.83;;;;;;;;;;5019360;28;20672;-54
2023/02/13 02:20:04;;;;;;;8.93;6.23;;;;;;;;;;5023301;28;20202;-54
2023/02/13 02:22:49;;;;;;;8.67;7.47;;;;;;;;;;5014109;28;20175;-54
2023/02/13 02:25:35;;;;;;;9.33;7.03;;;;;;;;;;5026770;28;20198;-54
2023/02/13 02:28:14;;;;;;;8.30;6.53;;;;;;;;;;5023839;28;20205;-54
2023/02/13 02:30:58;;;;;;;7.57;5.73;;;;;;;;;;5015930;28;20572;-54
2023/02/13 02:33:41;;;;;;;7.87;6.57;;;;;;;;;;5018924;28;20200;-54
2023/02/13 02:36:17;;;;;;;8.17;6.20;;;;;;;;;;5019856;28;20281;-54
2023/02/13 02:39:02;;;;;;;7.93;6.27;;;;;;;;;;5015573;28;20594;-54
2023/02/13 02:41:41;;;;;;;9.70;6.37;;;;;;;;;;5019292;28;20181;-54
2023/02/13 02:44:10;;;;;;;11.90;6.83;;;;;;;;;;5018938;28;20673;-54
2023/02/13 02:49:57;;;;;;;8.37;6.63;;;;;;;;;;5019987;28;20174;-54
2023/02/13 02:52:24;;;;;;;7.53;6.53;;;;;;;;;;5017017;28;20220;-53
2023/02/13 02:55:13;;;;;;;8.10;7.30;;;;;;;;;;5020288;28;20174;-54
2023/02/13 03:06:10;;;;;;;7.37;6.27;;;;;;;;;;5015297;28;20184;-53
2023/02/13 03:14:09;;;;;;;7.70;6.20;;;;;;;;;;5028895;28;20185;-54
2023/02/13 03:22:26;;;;;;;6.50;5.10;;;;;;;;;;5013778;28;20588;-54
2023/02/13 03:25:11;;;;;;;7.90;5.90;;;;;;;;;;5030705;28;20192;-54
2023/02/13 03:30:34;;;;;;;6.07;5.50;;;;;;;;;;5028183;28;20189;-54
2023/02/13 03:33:06;;;;;;;5.73;4.97;;;;;;;;;;5019090;28;20214;-54
2023/02/13 03:38:37;;;;;;;7.93;6.50;;;;;;;;;;5022997;28;20189;-55
2023/02/13 03:41:20;;;;;;;6.57;5.40;;;;;;;;;;5015279;28;20661;-54
2023/02/13 03:43:46;;;;;;;6.87;5.67;;;;;;;;;;5025786;28;20198;-54
2023/02/13 03:46:12;;;;;;;6.67;5.47;;;;;;;;;;5024549;28;20646;-54
2023/02/13 03:51:27;;;;;;;6.57;5.60;;;;;;;;;;5022572;28;20664;-55
2023/02/13 03:53:55;;;;;;;6.40;5.23;;;;;;;;;;5018294;28;20252;-55
2023/02/13 03:59:16;;;;;;;6.13;5.30;;;;;;;;;;5024073;28;20197;-53
2023/02/13 04:01:49;;;;;;;5.90;4.87;;;;;;;;;;5019212;28;20181;-54
2023/02/13 04:04:34;;;;;;;5.53;4.90;;;;;;;;;;5018973;28;20226;-54
2023/02/13 04:07:05;;;;;;;7.63;5.13;;;;;;;;;;5017785;28;20174;-54
2023/02/13 04:09:33;;;;;;;5.90;4.60;;;;;;;;;;5021601;28;20213;-54
2023/02/13 04:11:59;;;;;;;5.83;5.13;;;;;;;;;;5032310;28;20216;-54
2023/02/13 04:14:27;;;;;;;5.63;4.97;;;;;;;;;;5025952;28;20201;-54
2023/02/13 04:16:57;;;;;;;7.20;6.57;;;;;;;;;;5027036;28;20638;-54
2023/02/13 04:19:25;;;;;;;5.27;4.77;;;;;;;;;;5021429;28;20223;-55
2023/02/13 04:21:55;;;;;;;6.53;4.83;;;;;;;;;;5023589;28;20279;-55
2023/02/13 04:24:21;;;;;;;6.83;5.60;;;;;;;;;;5027215;28;20190;-54
2023/02/13 04:26:47;;;;;;;6.03;4.77;;;;;;;;;;5021423;28;20543;-54
2023/02/13 04:29:13;;;;;;;6.63;4.93;;;;;;;;;;5020259;28;20467;-55
2023/02/13 04:31:39;;;;;;;8.33;7.73;;;;;;;;;;5027471;28;20248;-54
2023/02/13 04:34:05;;;;;;;6.63;5.20;;;;;;;;;;5023046;28;20206;-55
2023/02/13 04:36:31;;;;;;;6.10;4.80;;;;;;;;;;5020895;28;20186;-54
2023/02/13 04:38:57;;;;;;;5.60;4.33;;;;;;;;;;5026423;28;20626;-53
2023/02/13 04:41:23;;;;;;;6.10;5.20;;;;;;;;;;5019803;28;20182;-54
2023/02/13 04:43:51;;;;;;;6.30;5.13;;;;;;;;;;5026256;28;20174;-54
2023/02/13 04:46:17;;;;;;;6.57;5.20;;;;;;;;;;5019211;28;20197;-55
2023/02/13 04:48:43;;;;;;;6.00;5.10;;;;;;;;;;5020530;28;20182;-54
2023/02/13 04:51:09;;;;;;;5.70;4.80;;;;;;;;;;5025877;28;20643;-53
2023/02/13 04:53:35;;;;;;;5.80;5.20;;;;;;;;;;5025480;28;20609;-55
2023/02/13 04:56:01;;;;;;;6.77;5.43;;;;;;;;;;5022086;28;20202;-55
2023/02/13 04:58:27;;;;;;;5.23;4.73;;;;;;;;;;5020931;28;20170;-54
2023/02/13 05:00:53;;;;;;;8.17;6.43;;;;;;;;;;5032160;28;20159;-54
2023/02/13 05:03:19;;;;;;;8.27;7.47;;;;;;;;;;5031572;28;21674;-54
2023/02/13 05:05:45;;;;;;;7.33;5.37;;;;;;;;;;5032183;28;20533;-54
2023/02/13 05:08:11;;;;;;;7.07;6.30;;;;;;;;;;5031580;28;20189;-53
2023/02/13 05:10:37;;;;;;;6.50;5.57;;;;;;;;;;5027286;28;20588;-54
2023/02/13 05:13:03;;;;;;;6.53;5.27;;;;;;;;;;5031197;28;20198;-53
2023/02/13 05:15:29;;;;;;;5.53;4.93;;;;;;;;;;5017207;28;20641;-54
2023/02/13 05:17:55;;;;;;;7.33;5.63;;;;;;;;;;5031476;28;20164;-54
2023/02/13 05:20:21;;;;;;;6.50;4.67;;;;;;;;;;5028582;28;20181;-54
2023/02/13 05:25:34;;;;;;;7.00;5.63;;;;;;;;;;5015884;28;20228;-54
2023/02/13 05:28:00;;;;;;;6.30;5.30;;;;;;;;;;5022449;28;20182;-55
2023/02/13 05:30:26;;;;;;;7.47;5.73;;;;;;;;;;5014278;28;20194;-54
2023/02/13 05:32:53;;;;;;;6.07;5.47;;;;;;;;;;5021281;28;20673;-54
2023/02/13 05:35:23;;;;;;;8.27;5.50;;;;;;;;;;5016892;28;20241;-53
2023/02/13 05:37:49;;;;;;;5.50;4.83;;;;;;;;;;5032193;28;20166;-54
2023/02/13 05:40:15;;;;;;;5.73;4.67;;;;;;;;;;5019232;28;20645;-54
2023/02/13 05:42:42;;;;;;;6.73;5.60;;;;;;;;;;5015547;28;20260;-54
2023/02/13 05:45:09;;;;;;;6.20;5.43;;;;;;;;;;5020301;28;20194;-54
2023/02/13 05:47:35;;;;;;;6.07;5.30;;;;;;;;;;5022302;28;20488;-54
2023/02/13 05:50:01;;;;;;;6.50;5.30;;;;;;;;;;5025677;28;20185;-54
2023/02/13 05:52:27;;;;;;;7.50;5.87;;;;;;;;;;5014314;28;20621;-54
2023/02/13 05:54:53;;;;;;;5.97;5.20;;;;;;;;;;5023767;28;20606;-54
2023/02/13 05:57:19;;;;;;;6.80;5.70;;;;;;;;;;5026897;28;20553;-54
2023/02/13 05:59:45;;;;;;;6.23;5.23;;;;;;;;;;5020932;28;20171;-54
2023/02/13 06:02:12;;;;;;;5.97;5.27;;;;;;;;;;5016610;28;20178;-54
2023/02/13 06:04:38;;;;;;;6.63;5.60;;;;;;;;;;5022989;28;20233;-54
2023/02/13 06:07:04;;;;;;;6.03;5.20;;;;;;;;;;5017721;28;20174;-53
2023/02/13 06:09:30;;;;;;;7.23;5.83;;;;;;;;;;5018486;28;20240;-53
2023/02/13 06:11:56;;;;;;;7.30;5.53;;;;;;;;;;5022968;28;20187;-54
2023/02/13 06:14:22;;;;;;;6.17;5.40;;;;;;;;;;5016405;28;20178;-54
2023/02/13 06:16:48;;;;;;;6.80;5.93;;;;;;;;;;5021451;28;20181;-54
2023/02/13 06:19:14;;;;;;;6.50;5.63;;;;;;;;;;5021336;28;20285;-54
2023/02/13 06:21:40;;;;;;;6.40;5.43;;;;;;;;;;5017799;28;20633;-54
2023/02/13 06:24:07;;;;;;;6.27;5.60;;;;;;;;;;5020244;28;20221;-54
2023/02/13 06:26:33;;;;;;;6.97;5.63;;;;;;;;;;5022524;28;20523;-54
2023/02/13 06:28:59;;;;;;;7.20;6.07;;;;;;;;;;5020220;28;20278;-54
2023/02/13 06:31:25;;;;;;;6.40;5.63;;;;;;;;;;5024228;28;20181;-55
2023/02/13 06:33:51;;;;;;;6.80;5.40;;;;;;;;;;5023294;28;20209;-54
2023/02/13 06:36:17;;;;;;;7.07;6.20;;;;;;;;;;5019187;28;20228;-54
2023/02/13 06:38:43;;;;;;;6.50;5.60;;;;;;;;;;5018151;28;20174;-54
2023/02/13 06:41:09;;;;;;;6.43;5.80;;;;;;;;;;5025502;28;20198;-55
2023/02/13 06:43:36;;;;;;;6.10;5.33;;;;;;;;;;5023086;28;20258;-54
2023/02/13 06:46:05;;;;;;;6.70;5.80;;;;;;;;;;5027867;28;20298;-55
2023/02/13 06:48:31;;;;;;;8.40;6.10;;;;;;;;;;5026852;28;20189;-54
2023/02/13 06:50:57;;;;;;;7.50;6.60;;;;;;;;;;5023553;28;20241;-54
2023/02/13 06:53:24;;;;;;;8.63;6.17;;;;;;;;;;5023290;28;20202;-54
2023/02/13 06:55:54;;;;;;;6.87;5.70;;;;;;;;;;5016398;28;20194;-53
2023/02/13 06:58:21;;;;;;;6.73;5.47;;;;;;;;;;5023967;28;20185;-54
2023/02/13 07:00:47;;;;;;;6.03;5.07;;;;;;;;;;5014879;28;20533;-54
2023/02/13 07:03:13;;;;;;;6.50;5.17;;;;;;;;;;5020890;28;20708;-54
2023/02/13 07:05:40;;;;;;;6.30;5.70;;;;;;;;;;5019674;28;20264;-54
2023/02/13 07:08:06;;;;;;;7.97;6.40;;;;;;;;;;5019846;28;20263;-54
2023/02/13 07:10:32;;;;;;;8.57;5.83;;;;;;;;;;5017011;28;20189;-53
2023/02/13 07:12:58;;;;;;;6.60;5.37;;;;;;;;;;5016517;28;20198;-54
2023/02/13 07:15:24;;;;;;;5.97;5.20;;;;;;;;;;5019681;28;20177;-54
2023/02/13 07:17:57;;;;;;;5.70;5.10;;;;;;;;;;5020249;28;20277;-54
2023/02/13 07:20:23;;;;;;;6.77;5.53;;;;;;;;;;5017338;28;20174;-54
2023/02/13 07:22:49;;;;;;;7.17;6.27;;;;;;;;;;5015438;28;20577;-54
2023/02/13 07:25:15;;;;;;;8.33;6.20;;;;;;;;;;5019379;28;20190;-54
2023/02/13 07:27:41;;;;;;;7.93;5.87;;;;;;;;;;5017721;28;20225;-54
2023/02/13 07:30:08;;;;;;;7.77;6.30;;;;;;;;;;5022373;28;20224;-54
2023/02/13 07:32:34;;;;;;;7.20;6.20;;;;;;;;;;5019765;28;20658;-54
2023/02/13 07:35:00;;;;;;;6.50;5.67;;;;;;;;;;5018072;28;20185;-54
2023/02/13 07:37:30;;;;;;;6.77;6.07;;;;;;;;;;5023176;28;20177;-54
2023/02/13 07:39:56;;;;;;;7.93;6.40;;;;;;;;;;5014579;28;20190;-54
2023/02/13 07:42:22;;;;;;;7.47;6.47;;;;;;;;;;5019599;28;20572;-54
2023/02/13 07:44:48;;;;;;;7.70;6.43;;;;;;;;;;5020396;28;20178;-53
2023/02/13 07:47:14;;;;;;;7.40;6.63;;;;;;;;;;5017298;28;20186;-54
2023/02/13 07:49:40;;;;;;;7.23;6.40;;;;;;;;;;5014527;28;20653;-55
2023/02/13 07:52:06;;;;;;;8.77;6.27;;;;;;;;;;5020431;28;20214;-54
2023/02/13 07:54:32;;;;;;;10.13;7.43;;;;;;;;;;5015684;28;20540;-54
2023/02/13 07:56:59;;;;;;;7.90;5.77;;;;;;;;;;5023761;28;20197;-53
2023/02/13 07:59:25;;;;;;;7.50;6.50;;;;;;;;;;5022575;28;20174;-54
2023/02/13 08:01:51;;;;;;;7.67;6.87;;;;;;;;;;5023068;28;20279;-53
2023/02/13 08:04:17;;;;;;;7.43;6.63;;;;;;;;;;5021713;28;20237;-54
2023/02/13 08:06:43;;;;;;;9.23;7.07;;;;;;;;;;5022723;28;20233;-55
2023/02/13 08:12:06;;;;;;;8.00;7.13;;;;;;;;;;5023763;28;20193;-53
2023/02/13 08:14:32;;;;;;;9.87;8.03;;;;;;;;;;5024361;28;20177;-54
2023/02/13 08:16:59;;;;;;;7.97;7.13;;;;;;;;;;5021786;28;20178;-54
2023/02/13 08:19:26;;;;;;;8.60;7.07;;;;;;;;;;5016142;28;20316;-54
2023/02/13 08:21:52;;;;;;;9.27;7.93;;;;;;;;;;5021769;28;20186;-54
2023/02/13 08:24:18;;;;;;;9.50;7.70;;;;;;;;;;5022493;28;20178;-54
2023/02/13 08:26:44;;;;;;;8.70;7.07;;;;;;;;;;5024085;28;20197;-54
2023/02/13 08:29:10;;;;;;;8.57;7.20;;;;;;;;;;5019761;28;20531;-54
2023/02/13 08:31:36;;;;;;;8.17;6.97;;;;;;;;;;5024105;28;20621;-53
2023/02/13 08:34:03;;;;;;;10.83;8.33;;;;;;;;;;5015132;28;20658;-54
2023/02/13 08:36:29;;;;;;;9.50;7.07;;;;;;;;;;5019857;28;20190;-54
2023/02/13 08:38:55;;;;;;;8.30;7.40;;;;;;;;;;5025299;28;20725;-53
2023/02/13 08:41:24;;;;;;;9.70;7.80;;;;;;;;;;5026134;28;20872;-54
2023/02/13 08:43:50;;;;;;;9.57;7.33;;;;;;;;;;5023657;28;20182;-55
2023/02/13 08:46:17;;;;;;;9.23;8.13;;;;;;;;;;5026122;28;20639;-54
2023/02/13 08:48:43;;;;;;;8.27;6.63;;;;;;;;;;5027551;28;20181;-54
2023/02/13 08:51:10;;;;;;;9.33;7.70;;;;;;;;;;5014809;28;20685;-53
2023/02/13 08:53:37;;;;;;;9.17;8.13;;;;;;;;;;5024264;28;20585;-54
2023/02/13 08:56:03;;;;;;;10.07;7.67;;;;;;;;;;5022820;28;20598;-54
2023/02/13 08:58:29;;;;;;;7.67;6.80;;;;;;;;;;5017336;28;20175;-54
2023/02/13 09:00:55;;;;;;;7.83;6.93;;;;;;;;;;5017500;28;20182;-54
2023/02/13 09:03:21;;;;;;;7.90;7.00;;;;;;;;;;5016500;28;20871;-54
2023/02/13 09:05:47;;;;;;;9.43;7.77;;;;;;;;;;5018819;28;20706;-54
2023/02/13 09:08:14;;;;;;;7.50;6.70;;;;;;;;;;5021528;28;20197;-54
2023/02/13 09:10:42;;;;;;;8.53;7.50;;;;;;;;;;5019669;28;20257;-55
2023/02/13 09:13:09;;;;;;;7.63;6.87;;;;;;;;;;5020318;28;20657;-54
2023/02/13 09:15:38;;;;;;;9.30;7.60;;;;;;;;;;5023653;28;20611;-54
2023/02/13 09:18:04;;;;;;;7.50;6.67;;;;;;;;;;5017268;28;20244;-54
2023/02/13 09:20:30;;;;;;;11.23;6.80;;;;;;;;;;5024579;28;20644;-54
2023/02/13 09:22:56;;;;;;;9.07;7.33;;;;;;;;;;5024398;28;20641;-54
2023/02/13 09:25:22;;;;;;;9.07;7.60;;;;;;;;;;5016078;28;20544;-55
2023/02/13 09:27:48;;;;;;;9.03;7.33;;;;;;;;;;5018665;28;20586;-54
2023/02/13 09:30:21;;;;;;;8.30;7.40;;;;;;;;;;5021263;28;20917;-55
2023/02/13 09:32:48;;;;;;;8.13;7.17;;;;;;;;;;5021347;28;20210;-54
2023/02/13 09:35:14;;;;;;;8.43;6.90;;;;;;;;;;5020694;28;20227;-54
2023/02/13 09:37:40;;;;;;;8.50;6.77;;;;;;;;;;5022758;28;20184;-54
2023/02/13 09:40:16;;;;;;;9.10;7.40;;;;;;;;;;5015998;28;20179;-55
2023/02/13 09:42:42;;;;;;;8.57;7.10;;;;;;;;;;5017235;28;20193;-55
2023/02/13 09:45:11;;;;;;;7.83;6.93;;;;;;;;;;5024329;28;20216;-55
2023/02/13 09:47:39;;;;;;;8.27;7.00;;;;;;;;;;5014543;28;20191;-54
2023/02/13 09:50:05;;;;;;;9.47;7.17;;;;;;;;;;5023841;28;20204;-55
2023/02/13 09:52:32;;;;;;;8.00;6.53;;;;;;;;;;5020230;28;20811;-54
2023/02/13 09:54:58;;;;;;;7.70;6.70;;;;;;;;;;5022427;28;20179;-55
2023/02/13 09:57:24;;;;;;;8.97;6.53;;;;;;;;;;5019818;28;20178;-53
2023/02/13 10:00:15;;;;;;;9.77;6.97;;;;;;;;;;5019840;28;20185;-54
2023/02/13 10:02:45;;;;;;;9.67;7.47;;;;;;;;;;5016070;28;20576;-55
2023/02/13 10:05:23;;;;;;;7.53;6.37;;;;;;;;;;5017760;28;20275;-54
2023/02/13 10:07:49;;;;;;;9.57;7.30;;;;;;;;;;5015977;28;20186;-55
2023/02/13 10:10:37;;;;;;;8.83;6.73;;;;;;;;;;5013484;28;20212;-55
2023/02/13 10:13:03;;;;;;;7.77;6.20;;;;;;;;;;5019852;28;20202;-54
2023/02/13 10:15:37;;;;;;;6.97;6.03;;;;;;;;;;5019518;28;20185;-54
2023/02/13 10:18:12;;;;;;;7.97;6.63;;;;;;;;;;5016211;28;20201;-55
2023/02/13 10:20:47;;;;;;;8.30;7.00;;;;;;;;;;5014548;28;20692;-54
2023/02/13 10:23:31;;;;;;;7.40;6.43;;;;;;;;;;5022021;28;20672;-54
2023/02/13 10:25:58;;;;;;;7.23;5.47;;;;;;;;;;5017529;28;20187;-54
2023/02/13 10:28:30;;;;;;;7.47;6.73;;;;;;;;;;5013951;28;20185;-54
2023/02/13 10:30:59;;;;;;;7.47;5.97;;;;;;;;;;5014807;28;20271;-54
2023/02/13 10:33:30;;;;;;;8.17;6.87;;;;;;;;;;5026389;28;20206;-54
2023/02/13 10:35:56;;;;;;;9.30;6.17;;;;;;;;;;5020258;28;20515;-54
2023/02/13 10:38:22;;;;;;;7.57;6.77;;;;;;;;;;5015540;28;20209;-55
2023/02/13 10:41:00;;;;;;;7.20;6.23;;;;;;;;;;5022331;28;20205;-55
2023/02/13 10:43:29;;;;;;;7.83;6.67;;;;;;;;;;5013947;28;20232;-55
2023/02/13 10:46:14;;;;;;;8.23;6.67;;;;;;;;;;5013532;28;20189;-55
2023/02/13 10:48:40;;;;;;;7.40;6.23;;;;;;;;;;5016481;28;20178;-55
2023/02/13 10:51:18;;;;;;;7.17;6.47;;;;;;;;;;5016664;28;20236;-55
2023/02/13 10:53:53;;;;;;;8.77;6.67;;;;;;;;;;5016462;28;20217;-55
2023/02/13 10:56:45;;;;;;;7.07;6.27;;;;;;;;;;5015629;28;20699;-54
2023/02/13 10:59:14;;;;;;;6.50;5.67;;;;;;;;;;4989110;28;20282;-55
2023/02/13 11:01:49;;;;;;;8.50;6.17;;;;;;;;;;5017847;28;20264;-55
2023/02/13 11:04:17;;;;;;;6.83;6.00;;;;;;;;;;5018711;28;20229;-55
2023/02/13 11:06:48;;;;;;;7.77;6.37;;;;;;;;;;5018239;28;20517;-54
2023/02/13 11:09:14;;;;;;;6.80;5.70;;;;;;;;;;5019384;28;20187;-54
2023/02/13 11:11:42;;;;;;;7.73;6.00;;;;;;;;;;5017653;28;20178;-54
2023/02/13 11:14:19;;;;;;;6.67;6.07;;;;;;;;;;5016071;28;20209;-54
2023/02/13 11:16:55;;;;;;;7.87;6.43;;;;;;;;;;5018337;28;20603;-54
2023/02/13 11:19:37;;;;;;;6.13;5.53;;;;;;;;;;5022181;28;20240;-55
2023/02/13 11:22:13;;;;;;;7.90;6.53;;;;;;;;;;5021078;28;20182;-55
2023/02/13 11:24:49;;;;;;;6.77;5.43;;;;;;;;;;5017937;28;20197;-54
2023/02/13 11:27:16;;;;;;;5.73;5.20;;;;;;;;;;5020592;28;20185;-55
2023/02/13 11:29:53;;;;;;;6.33;5.27;;;;;;;;;;5018881;28;20673;-54
2023/02/13 11:32:21;;;;;;;6.13;5.50;;;;;;;;;;5017223;28;20178;-55
2023/02/13 11:34:53;;;;;;;6.57;5.67;;;;;;;;;;5020644;28;20182;-55
2023/02/13 11:37:24;;;;;;;7.00;6.00;;;;;;;;;;5018977;28;20187;-55
2023/02/13 11:39:51;;;;;;;6.47;5.73;;;;;;;;;;5013352;28;20183;-54
2023/02/13 11:42:17;;;;;;;6.20;5.43;;;;;;;;;;5024544;28;20592;-54
2023/02/13 11:44:48;;;;;;;6.33;5.00;;;;;;;;;;5022554;28;20538;-55
2023/02/13 11:47:14;;;;;;;6.77;5.27;;;;;;;;;;5019030;28;20178;-54
2023/02/13 11:49:45;;;;;;;7.67;5.77;;;;;;;;;;5022450;28;20599;-54
2023/02/13 11:52:31;;;;;;;6.07;5.47;;;;;;;;;;5024351;28;20174;-55
2023/02/13 11:54:58;;;;;;;5.93;5.20;;;;;;;;;;5017832;28;20175;-54
2023/02/13 11:57:32;;;;;;;6.70;5.77;;;;;;;;;;5022417;28;20287;-55
2023/02/13 11:59:59;;;;;;;5.97;5.37;;;;;;;;;;5021458;28;20197;-55
2023/02/13 12:02:26;;;;;;;6.23;5.33;;;;;;;;;;5024119;28;20189;-55
2023/02/13 12:04:54;;;;;;;5.97;5.37;;;;;;;;;;5017847;28;20225;-55
2023/02/13 12:07:31;;;;;;;5.70;5.10;;;;;;;;;;5023239;28;20191;-55
2023/02/13 12:10:01;;;;;;;5.90;4.80;;;;;;;;;;5017989;28;20284;-55
2023/02/13 12:12:31;;;;;;;6.70;5.50;;;;;;;;;;5010919;28;20247;-55
2023/02/13 12:14:57;;;;;;;7.03;5.80;;;;;;;;;;5020657;28;20173;-55
2023/02/13 12:17:25;;;;;;;5.60;5.00;;;;;;;;;;5025874;28;20169;-54
2023/02/13 12:19:53;;;;;;;5.30;4.80;;;;;;;;;;5022082;28;20188;-55
2023/02/13 12:22:28;;;;;;;5.97;5.37;;;;;;;;;;5021590;28;20178;-54
2023/02/13 12:25:14;;;;;;;6.37;4.63;;;;;;;;;;5020270;28;20519;-54
2023/02/13 12:27:59;;;;;;;5.50;4.10;;;;;;;;;;5014197;28;20194;-55
2023/02/13 12:30:44;;;;;;;4.63;4.10;;;;;;;;;;5020234;28;20189;-55
2023/02/13 12:33:28;;;;;;;5.50;4.87;;;;;;;;;;5021996;28;20303;-55
2023/02/13 12:36:06;;;;;;;6.17;5.50;;;;;;;;;;5019508;28;20657;-54
2023/02/13 12:38:41;;;;;;;5.87;4.63;;;;;;;;;;5017473;28;20655;-55
2023/02/13 12:41:18;;;;;;;5.50;4.53;;;;;;;;;;5018404;28;20182;-54
2023/02/13 12:44:03;;;;;;;5.13;4.53;;;;;;;;;;5019020;28;20178;-55
2023/02/13 12:46:29;;;;;;;6.83;4.90;;;;;;;;;;5019954;28;20190;-54
2023/02/13 12:48:55;;;;;;;5.13;4.63;;;;;;;;;;5022666;28;20610;-55
2023/02/13 12:51:21;;;;;;;5.63;4.97;;;;;;;;;;5021233;28;20211;-54
2023/02/13 12:54:06;;;;;;;4.90;4.07;;;;;;;;;;5018769;28;20233;-54
2023/02/13 12:56:39;;;;;;;5.93;4.63;;;;;;;;;;5023489;28;20209;-54
2023/02/13 12:59:20;;;;;;;5.73;4.93;;;;;;;;;;5019570;28;20175;-52
2023/02/13 13:01:58;;;;;;;6.37;4.60;;;;;;;;;;5020711;28;20227;-54
2023/02/13 13:04:27;;;;;;;6.13;5.03;;;;;;;;;;5021497;28;20287;-54
2023/02/13 13:07:06;;;;;;;6.53;4.47;;;;;;;;;;5017872;28;20298;-54
2023/02/13 13:09:51;;;;;;;4.87;4.33;;;;;;;;;;5014926;28;20185;-54
2023/02/13 13:12:36;;;;;;;6.07;4.73;;;;;;;;;;5019958;28;20179;-54
2023/02/13 13:15:14;;;;;;;5.20;4.10;;;;;;;;;;5022719;28;20177;-54
2023/02/13 13:18:06;;;;;;;5.23;4.13;;;;;;;;;;5017092;28;20189;-55
2023/02/13 13:20:50;;;;;;;5.93;4.07;;;;;;;;;;5023067;28;20587;-55
2023/02/13 13:23:16;;;;;;;5.53;4.93;;;;;;;;;;5017613;28;20323;-54
2023/02/13 13:25:50;;;;;;;4.00;3.70;;;;;;;;;;5017551;28;20598;-54
2023/02/13 13:28:18;;;;;;;4.53;3.97;;;;;;;;;;5018213;28;20202;-55
2023/02/13 13:30:46;;;;;;;5.20;4.67;;;;;;;;;;5025393;28;20196;-53
2023/02/13 13:33:19;;;;;;;4.33;3.93;;;;;;;;;;5018123;28;20218;-54
2023/02/13 13:36:04;;;;;;;4.60;3.97;;;;;;;;;;5019462;28;20173;-55
2023/02/13 13:38:37;;;;;;;4.27;3.80;;;;;;;;;;5016798;28;20178;-53
2023/02/13 13:41:26;;;;;;;4.33;3.93;;;;;;;;;;5020061;28;20179;-54
2023/02/13 13:43:58;;;;;;;4.20;3.80;;;;;;;;;;5020287;28;20182;-54
2023/02/13 13:46:31;;;;;;;3.80;3.40;;;;;;;;;;5013790;28;20182;-54
2023/02/13 13:49:12;;;;;;;3.97;3.57;;;;;;;;;;5020893;28;20174;-54
2023/02/13 13:51:38;;;;;;;5.10;4.17;;;;;;;;;;5023975;28;20209;-55
2023/02/13 13:54:04;;;;;;;3.43;3.13;;;;;;;;;;5018132;28;20194;-55
2023/02/13 13:56:49;;;;;;;3.80;3.50;;;;;;;;;;5020639;28;20244;-55
2023/02/13 13:59:19;;;;;;;4.27;3.80;;;;;;;;;;5018311;28;20175;-54
2023/02/13 14:01:45;;;;;;;3.13;2.80;;;;;;;;;;5024209;28;21011;-55
2023/02/13 14:04:30;;;;;;;3.87;3.50;;;;;;;;;;5021993;28;20242;-55
2023/02/13 14:06:58;;;;;;;4.33;3.70;;;;;;;;;;5024506;28;21321;-54
2023/02/13 14:09:24;;;;;;;3.80;3.50;;;;;;;;;;5017868;28;20251;-54
2023/02/13 14:11:50;;;;;;;4.60;3.70;;;;;;;;;;5017679;28;20178;-54
2023/02/13 14:14:31;;;;;;;4.87;3.40;;;;;;;;;;5022591;28;20241;-54
2023/02/13 14:17:00;;;;;;;3.60;3.30;;;;;;;;;;5019722;28;20178;-54
2023/02/13 14:19:26;;;;;;;3.67;3.37;;;;;;;;;;5020862;28;20804;-55
2023/02/13 14:21:53;;;;;;;3.63;3.30;;;;;;;;;;5019791;28;20186;-54
2023/02/13 14:24:20;;;;;;;3.53;3.23;;;;;;;;;;5017435;28;20757;-55
2023/02/13 14:26:51;;;;;;;3.90;3.00;;;;;;;;;;5017596;28;20178;-55
2023/02/13 14:29:35;;;;;;;3.23;2.93;;;;;;;;;;5019117;28;20656;-54
2023/02/13 14:32:04;;;;;;;3.13;2.80;;;;;;;;;;5014287;28;20579;-54
2023/02/13 14:34:40;;;;;;;3.27;2.97;;;;;;;;;;5015574;28;20205;-55
2023/02/13 14:37:16;;;;;;;4.13;3.00;;;;;;;;;;5019802;28;20174;-54
2023/02/13 14:39:44;;;;;;;3.30;3.00;;;;;;;;;;5016901;28;20186;-55
2023/02/13 14:42:25;;;;;;;3.77;3.40;;;;;;;;;;5018330;28;20297;-55
2023/02/13 14:44:54;;;;;;;3.30;3.00;;;;;;;;;;5013174;28;20206;-54
2023/02/13 14:47:22;;;;;;;3.40;3.10;;;;;;;;;;5015382;28;20183;-54
2023/02/13 14:49:49;;;;;;;3.47;2.70;;;;;;;;;;5018671;28;20180;-53
2023/02/13 14:52:18;;;;;;;3.27;2.97;;;;;;;;;;5024748;28;20276;-54
2023/02/13 14:55:02;;;;;;;2.97;2.73;;;;;;;;;;5025976;28;20246;-54
2023/02/13 14:57:41;;;;;;;4.80;3.10;;;;;;;;;;5018019;28;20185;-54
2023/02/13 15:00:10;;;;;;;5.77;4.27;;;;;;;;;;5021747;28;20190;-55
2023/02/13 15:02:41;;;;;;;3.00;2.70;;;;;;;;;;5018363;28;20185;-54
2023/02/13 15:05:11;;;;;;;3.27;2.93;;;;;;;;;;5023199;28;20185;-54
2023/02/13 15:07:43;;;;;;;2.57;2.37;;;;;;;;;;5015138;28;20206;-54
2023/02/13 15:10:27;;;;;;;3.53;3.23;;;;;;;;;;5021331;28;20350;-54
2023/02/13 15:12:57;;;;;;;3.17;2.90;;;;;;;;;;5021178;28;20670;-54
2023/02/13 15:15:25;;;;;;;3.40;3.10;;;;;;;;;;5015711;28;20203;-54
2023/02/13 15:17:59;;;;;;;3.00;2.77;;;;;;;;;;5022079;28;20254;-55
2023/02/13 15:20:27;;;;;;;3.10;2.80;;;;;;;;;;5019964;28;20180;-54
2023/02/13 15:22:53;;;;;;;3.93;2.60;;;;;;;;;;5023198;28;20179;-54
2023/02/13 15:25:22;;;;;;;3.10;2.80;;;;;;;;;;5021472;28;20190;-54
2023/02/13 15:27:52;;;;;;;3.00;2.70;;;;;;;;;;5024392;28;20269;-54
2023/02/13 15:30:28;;;;;;;3.43;3.00;;;;;;;;;;5022200;28;20210;-54
2023/02/13 15:33:02;;;;;;;3.80;3.20;;;;;;;;;;5023422;28;20230;-54
2023/02/13 15:35:33;;;;;;;2.97;2.77;;;;;;;;;;5021280;28;20212;-54
2023/02/13 15:37:59;;;;;;;3.90;2.43;;;;;;;;;;5023548;28;20179;-54
2023/02/13 15:40:28;;;;;;;2.77;2.57;;;;;;;;;;5023325;28;20239;-53